Time;durP1;ratioP1;P1;durP2;ratioP2;P2;SDS_P1;SDS_P2;PMS_P1;PMS_P2;Temp;Humidity;BMP_temperature;BMP_pressure;BME280_temperature;BME280_humidity;BME280_pressure;Samples;Min_cycle;Max_cycle;Signal;HPM_P1;HPM_P2
2022/07/23 00:00:38;235063.00;0.78;406.26;0.00;0.00;0.62;;;;;26.70;1.00;;;;;;2264592;61;973;-87
2022/07/23 00:03:05;262204.00;0.87;452.94;0.00;0.00;0.62;;;;;26.90;1.00;;;;;;2264563;61;1336;-87
2022/07/23 00:05:32;107961.00;0.36;187.31;0.00;0.00;0.62;;;;;26.50;1.00;;;;;;2264541;61;870;-88
2022/07/23 00:07:59;502817.00;1.68;866.67;46679.00;0.16;81.44;;;;;26.10;1.00;;;;;;2264455;61;1012;-88
2022/07/23 00:10:26;270317.00;0.90;466.89;0.00;0.00;0.62;;;;;26.20;1.00;;;;;;2264443;61;1311;-88
2022/07/23 00:12:53;327080.00;1.09;564.47;0.00;0.00;0.62;;;;;26.40;1.00;;;;;;2264372;61;1622;-87
2022/07/23 00:15:24;290407.00;0.97;501.43;30865.00;0.10;54.08;;;;;26.60;1.00;;;;;;2264489;61;1998;-87
2022/07/23 00:17:52;325303.00;1.08;561.41;0.00;0.00;0.62;;;;;26.80;1.00;;;;;;2264516;61;1003;-86
2022/07/23 00:20:19;302480.00;1.01;522.18;0.00;0.00;0.62;;;;;27.00;1.00;;;;;;2264473;61;991;-88
2022/07/23 00:22:50;284539.00;0.95;491.34;0.00;0.00;0.62;;;;;27.10;1.00;;;;;;2264458;61;1301;-88
2022/07/23 00:25:17;289586.00;0.97;500.02;47051.00;0.16;82.09;;;;;27.00;1.00;;;;;;2264357;61;1350;-88
2022/07/23 00:27:44;164162.00;0.55;284.21;0.00;0.00;0.62;;;;;26.90;1.00;;;;;;2264411;61;1045;-88
2022/07/23 00:30:13;30189.00;0.10;52.91;0.00;0.00;0.62;;;;;26.90;1.00;;;;;;2264342;61;1114;-86
2022/07/23 00:32:52;259487.00;0.86;448.27;0.00;0.00;0.62;;;;;26.80;1.00;;;;;;2264296;61;1472;-87
2022/07/23 00:35:21;164656.00;0.55;285.06;0.00;0.00;0.62;;;;;26.50;1.00;;;;;;2264442;61;1985;-87
2022/07/23 00:37:48;157266.00;0.52;272.33;0.00;0.00;0.62;;;;;26.70;1.00;;;;;;2264311;61;1437;-87
2022/07/23 00:40:16;165009.00;0.55;285.67;0.00;0.00;0.62;;;;;26.60;1.00;;;;;;2264359;61;1423;-86
2022/07/23 00:42:44;293891.00;0.98;507.42;44863.00;0.15;78.30;;;;;26.60;1.00;;;;;;2264308;61;1399;-87
2022/07/23 00:45:11;274327.00;0.91;473.78;24692.00;0.08;43.39;;;;;26.50;1.00;;;;;;2264304;61;1553;-88
2022/07/23 00:47:38;175426.00;0.58;303.61;0.00;0.00;0.62;;;;;26.50;1.00;;;;;;2264361;61;1044;-89
2022/07/23 00:50:09;286267.00;0.95;494.31;0.00;0.00;0.62;;;;;26.40;1.00;;;;;;2264279;61;1088;-87
2022/07/23 00:52:39;146700.00;0.49;254.12;0.00;0.00;0.62;;;;;26.50;1.00;;;;;;2264375;61;1420;-87
2022/07/23 00:55:08;177806.00;0.59;307.71;0.00;0.00;0.62;;;;;26.60;1.00;;;;;;2264354;61;1983;-87
2022/07/23 00:57:35;222310.00;0.74;384.32;0.00;0.00;0.62;;;;;26.90;1.00;;;;;;2264187;61;1545;-87
2022/07/23 01:00:04;141786.00;0.47;245.65;0.00;0.00;0.62;;;;;27.00;1.00;;;;;;2264254;61;1507;-87
2022/07/23 01:02:31;177905.00;0.59;307.88;0.00;0.00;0.62;;;;;26.90;1.00;;;;;;2264292;61;1488;-85
2022/07/23 01:04:58;163479.00;0.54;283.03;0.00;0.00;0.62;;;;;26.70;1.00;;;;;;2264300;61;2225;-85
2022/07/23 01:07:27;231326.00;0.77;399.83;13414.00;0.04;23.86;;;;;26.60;1.00;;;;;;2264325;61;995;-86
2022/07/23 01:09:55;109298.00;0.36;189.62;0.00;0.00;0.62;;;;;26.50;1.00;;;;;;2264344;61;1550;-88
2022/07/23 01:12:22;168141.00;0.56;291.06;0.00;0.00;0.62;;;;;26.20;1.00;;;;;;2264251;61;1525;-89
2022/07/23 01:14:55;169372.00;0.56;293.18;0.00;0.00;0.62;;;;;26.20;1.00;;;;;;2264073;61;2005;-88
2022/07/23 01:17:22;198497.00;0.66;343.34;0.00;0.00;0.62;;;;;26.20;1.00;;;;;;2264278;61;1388;-87
2022/07/23 01:19:49;129247.00;0.43;224.03;0.00;0.00;0.62;;;;;26.40;1.00;;;;;;2264224;61;1103;-88
2022/07/23 01:22:18;140948.00;0.47;244.21;0.00;0.00;0.62;;;;;26.40;1.00;;;;;;2264232;61;1391;-87
2022/07/23 01:24:48;226734.00;0.76;391.93;0.00;0.00;0.62;;;;;26.40;1.00;;;;;;2264281;61;1044;-88
2022/07/23 01:27:17;156929.00;0.52;271.75;0.00;0.00;0.62;;;;;26.50;1.00;;;;;;2264134;61;1562;-88
2022/07/23 01:29:48;153709.00;0.51;266.20;0.00;0.00;0.62;;;;;26.40;1.00;;;;;;2246244;56;1226519;-86
2022/07/23 01:32:15;521763.00;1.74;899.30;66048.00;0.22;114.93;;;;;26.40;1.00;;;;;;2264794;61;1448;-86
2022/07/23 01:34:42;378307.00;1.26;652.52;0.00;0.00;0.62;;;;;26.20;1.00;;;;;;2264569;61;979;-88
2022/07/23 01:37:11;100509.00;0.34;174.45;0.00;0.00;0.62;;;;;26.10;1.00;;;;;;2264610;61;1997;-88
2022/07/23 01:39:42;159933.00;0.53;276.92;0.00;0.00;0.62;;;;;26.10;1.00;;;;;;2265266;61;1087;-88
2022/07/23 01:42:11;130907.00;0.44;226.89;0.00;0.00;0.62;;;;;26.30;1.00;;;;;;2265223;61;1591;-88
2022/07/23 01:44:40;135368.00;0.45;234.59;0.00;0.00;0.62;;;;;26.40;1.00;;;;;;2265197;61;1435;-89
2022/07/23 01:47:07;272233.00;0.91;470.18;0.00;0.00;0.62;;;;;26.50;1.00;;;;;;2265230;61;1597;-88
2022/07/23 01:49:34;211492.00;0.70;365.70;0.00;0.00;0.62;;;;;26.60;1.00;;;;;;2265121;61;1654;-89
2022/07/23 01:52:01;184727.00;0.62;319.63;0.00;0.00;0.62;;;;;26.70;1.00;;;;;;2265102;61;1387;-88
2022/07/23 01:54:28;300434.00;1.00;518.67;0.00;0.00;0.62;;;;;26.70;1.00;;;;;;2265055;61;1487;-88
2022/07/23 01:56:55;239084.00;0.80;413.18;0.00;0.00;0.62;;;;;26.80;1.00;;;;;;2265043;61;1928;-88
2022/07/23 01:59:25;161348.00;0.54;279.36;0.00;0.00;0.62;;;;;26.70;1.00;;;;;;2265007;61;1460;-88
2022/07/23 02:01:52;244207.00;0.81;421.99;6742.00;0.02;12.30;;;;;26.50;1.00;;;;;;2264898;61;1296;-88
2022/07/23 02:04:19;247405.00;0.82;427.49;0.00;0.00;0.62;;;;;26.60;1.00;;;;;;2264768;61;1042;-88
2022/07/23 02:06:50;211870.00;0.71;366.35;0.00;0.00;0.62;;;;;26.60;1.00;;;;;;2264741;61;1604;-88
2022/07/23 02:09:17;245463.00;0.82;424.15;0.00;0.00;0.62;;;;;26.30;1.00;;;;;;2264734;61;1459;-87
2022/07/23 02:11:46;239945.00;0.80;414.66;0.00;0.00;0.62;;;;;25.90;1.00;;;;;;2264710;61;1345;-87
2022/07/23 02:14:15;357413.00;1.19;616.60;0.00;0.00;0.62;;;;;25.50;1.00;;;;;;2264597;61;1930;-88
2022/07/23 02:16:47;236923.00;0.79;409.46;31126.00;0.10;54.53;;;;;25.30;1.00;;;;;;2264692;61;1916;-87
2022/07/23 02:19:16;327522.00;1.09;565.23;41782.00;0.14;72.97;;;;;25.60;1.00;;;;;;2276995;40;3653;-86
2022/07/23 02:24:28;86208.00;0.29;149.76;0.00;0.00;0.62;;;;;25.90;1.00;;;;;;2264844;61;1230;-87
2022/07/23 02:26:59;412484.00;1.37;711.27;0.00;0.00;0.62;;;;;26.00;1.00;;;;;;2264707;61;1609;-87
2022/07/23 02:32:13;269348.00;0.90;465.22;79640.00;0.27;138.42;;;;;25.80;1.00;;;;;;2264846;61;1437;-87
2022/07/23 02:34:40;627060.00;2.09;1080.97;64088.00;0.21;111.54;;;;;25.80;1.00;;;;;;2264603;61;1488;-87
2022/07/23 02:37:10;355300.00;1.18;612.97;75861.00;0.25;131.89;;;;;25.90;1.00;;;;;;2264792;61;1924;-88
2022/07/23 02:39:37;707280.00;2.36;1219.87;115194.00;0.38;199.79;;;;;26.10;1.00;;;;;;2264640;61;1564;-88
2022/07/23 02:42:06;457075.00;1.52;787.95;66690.00;0.22;116.04;;;;;26.00;1.00;;;;;;2264605;61;1546;-88
2022/07/23 02:44:34;547782.00;1.83;944.14;70027.00;0.23;121.81;;;;;25.90;1.00;;;;;;2264666;61;1361;-88
2022/07/23 02:47:02;395423.00;1.32;681.94;64693.00;0.22;112.59;;;;;25.80;1.00;;;;;;2264697;61;1535;-88
2022/07/23 02:49:30;482898.00;1.61;832.39;61409.00;0.20;106.91;;;;;25.80;1.00;;;;;;2264543;61;1628;-88
2022/07/23 02:52:00;462741.00;1.54;797.70;66024.00;0.22;114.89;;;;;25.90;1.00;;;;;;2264714;61;1377;-88
2022/07/23 02:54:29;521814.00;1.74;899.39;63717.00;0.21;110.90;;;;;25.70;1.00;;;;;;2264728;61;960;-88
2022/07/23 02:57:04;463322.00;1.54;798.70;158754.00;0.53;274.89;;;;;25.60;1.00;;;;;;2264677;61;1915;-88
2022/07/23 03:02:20;667998.00;2.23;1151.79;54510.00;0.18;94.99;;;;;25.80;1.00;;;;;;2264782;61;1508;-86
2022/07/23 03:04:53;1048249.00;3.49;1818.12;28570.00;0.10;50.11;;;;;25.90;1.00;;;;;;2264615;61;977;-88
2022/07/23 03:07:24;744313.00;2.48;1284.17;23276.00;0.08;40.94;;;;;25.90;1.00;;;;;;2270017;40;3604;-87
2022/07/23 03:12:35;58490.00;0.19;101.87;0.00;0.00;0.62;;;;;25.80;1.00;;;;;;2264775;61;1297;-88
2022/07/23 03:15:05;187511.00;0.63;324.42;68635.00;0.23;119.40;;;;;25.90;1.00;;;;;;2264679;61;1458;-88
2022/07/23 03:17:43;250215.00;0.83;432.32;0.00;0.00;0.62;;;;;25.90;1.00;;;;;;2264663;61;2029;-87
2022/07/23 03:20:16;95457.00;0.32;165.73;0.00;0.00;0.62;;;;;26.10;1.00;;;;;;2264621;61;1436;-87
2022/07/23 03:22:43;237830.00;0.79;411.02;74.00;0.00;0.75;;;;;26.10;1.00;;;;;;2264605;61;1595;-88
2022/07/23 03:25:14;207619.00;0.69;359.04;0.00;0.00;0.62;;;;;26.20;1.00;;;;;;2264777;61;1442;-87
2022/07/23 03:30:21;1737291.00;5.79;3098.11;23758.00;0.08;41.78;;;;;26.00;1.00;;;;;;2266039;61;1400;-90
2022/07/23 03:32:50;203863.00;0.68;352.57;50252.00;0.17;87.62;;;;;26.00;1.00;;;;;;2264458;61;1518;-88
2022/07/23 03:35:18;537180.00;1.79;925.86;0.00;0.00;0.62;;;;;25.90;1.00;;;;;;2264611;61;957;-88
2022/07/23 03:37:50;195079.00;0.65;337.45;0.00;0.00;0.62;;;;;25.80;1.00;;;;;;2264610;61;1932;-88
2022/07/23 03:40:26;287498.00;0.96;496.43;0.00;0.00;0.62;;;;;25.90;1.00;;;;;;2264527;61;1471;-87
2022/07/23 03:42:56;144438.00;0.48;250.22;0.00;0.00;0.62;;;;;25.80;1.00;;;;;;2264502;61;1569;-87
2022/07/23 03:45:23;147538.00;0.49;255.56;0.00;0.00;0.62;;;;;25.80;1.00;;;;;;2264545;61;1454;-88
2022/07/23 03:47:53;218807.00;0.73;378.29;0.00;0.00;0.62;;;;;25.70;1.00;;;;;;2264605;61;1373;-85
2022/07/23 03:50:25;295096.00;0.98;509.49;51415.00;0.17;89.63;;;;;25.60;1.00;;;;;;2264487;61;1578;-86
2022/07/23 03:55:27;827791.00;2.76;1429.64;0.00;0.00;0.62;;;;;25.70;1.00;;;;;;2258185;61;1422;-87
2022/07/23 03:57:57;202053.00;0.67;349.46;80076.00;0.27;139.17;;;;;25.80;1.00;;;;;;2256474;61;2048;-87
2022/07/23 04:00:30;188182.00;0.63;325.58;411.00;0.00;1.33;;;;;25.80;1.00;;;;;;2256339;61;1440;-87
2022/07/23 04:02:57;299244.00;1.00;516.62;0.00;0.00;0.62;;;;;25.90;1.00;;;;;;2256394;61;1428;-86
2022/07/23 04:05:34;197437.00;0.66;341.51;25799.00;0.09;45.31;;;;;25.80;1.00;;;;;;2256549;61;1656;-87
2022/07/23 04:08:04;244879.00;0.82;423.14;0.00;0.00;0.62;;;;;25.80;1.00;;;;;;2256464;61;1546;-87
2022/07/23 04:10:31;642686.00;2.14;1107.98;174020.00;0.58;301.19;;;;;25.80;1.00;;;;;;2256495;61;1440;-87
2022/07/23 04:18:00;1281815.00;4.27;2238.86;0.00;0.00;0.62;;;;;25.90;1.00;;;;;;2286273;56;3627;-88
2022/07/23 04:20:32;319581.00;1.07;551.58;0.00;0.00;0.62;;;;;26.00;1.00;;;;;;2311939;40;3789;-87
2022/07/23 04:28:08;1996645.00;6.66;3617.44;97427.00;0.32;169.13;;;;;26.20;1.00;;;;;;2271072;40;3514;-87
2022/07/23 04:30:37;1408182.00;4.69;2471.51;68777.00;0.23;119.65;;;;;26.40;1.00;;;;;;2271441;41;3587;-87
2022/07/23 04:33:08;731422.00;2.44;1261.77;142908.00;0.48;247.58;;;;;26.00;1.00;;;;;;2272283;41;3736;-88
2022/07/23 04:48:20;2838656.00;9.46;5512.63;163401.00;0.54;282.90;;;;;26.10;1.00;;;;;;2285633;56;3651;-87
2022/07/23 04:58:25;2908088.00;9.69;5686.20;130116.00;0.43;225.53;;;;;26.20;1.00;;;;;;2288749;41;3467;-88
2022/07/23 05:00:53;1153877.00;3.85;2007.05;80417.00;0.27;139.76;;;;;26.50;1.00;;;;;;2290314;40;3803;-88
2022/07/23 05:10:55;1858018.00;6.19;3336.75;47677.00;0.16;83.17;;;;;27.30;1.00;;;;;;2258249;61;1319;-88
2022/07/23 05:16:11;1284062.00;4.28;2242.97;0.00;0.00;0.62;;;;;27.00;1.00;;;;;;2319195;56;3653;-88
2022/07/23 05:21:08;2035065.00;6.78;3696.57;0.00;0.00;0.62;;;;;26.80;1.00;;;;;;2261607;61;1441;-87
2022/07/23 05:23:37;723478.00;2.41;1247.98;16502.00;0.06;29.21;;;;;26.70;1.00;;;;;;2291767;41;3694;-86
2022/07/23 05:33:45;1389968.00;4.63;2437.73;0.00;0.00;0.62;;;;;26.60;1.00;;;;;;2315046;41;3516;-88
2022/07/23 05:38:47;2063866.00;6.88;3756.30;14046.00;0.05;24.96;;;;;25.70;1.00;;;;;;819606;40;3487;-87
2022/07/23 05:41:22;361654.00;1.21;623.89;44462.00;0.15;77.61;;;;;25.70;1.00;;;;;;2269446;40;3604;-87
2022/07/23 05:43:51;219311.00;0.73;379.16;0.00;0.00;0.62;;;;;26.00;1.00;;;;;;2271750;56;3811;-90
2022/07/23 05:46:18;268352.00;0.89;463.51;55230.00;0.18;96.23;;;;;26.20;1.00;;;;;;2264069;61;1463;-89
2022/07/23 05:56:35;1519066.00;5.06;2679.05;0.00;0.00;0.62;;;;;28.90;1.00;;;;;;2261443;61;1976;-89
2022/07/23 05:59:04;588832.00;1.96;1014.94;0.00;0.00;0.62;;;;;30.20;1.00;;;;;;2311749;41;3599;-89
2022/07/23 06:01:34;423953.00;1.41;730.99;65520.00;0.22;114.02;;;;;30.60;1.00;;;;;;2264197;61;1534;-88
2022/07/23 06:04:06;351353.00;1.17;606.19;0.00;0.00;0.62;;;;;31.30;1.00;;;;;;2264261;61;972;-87
2022/07/23 06:06:44;236815.00;0.79;409.27;0.00;0.00;0.62;;;;;32.30;1.00;;;;;;2264245;61;1577;-88
2022/07/23 06:09:15;258153.00;0.86;445.97;0.00;0.00;0.62;;;;;33.40;1.00;;;;;;2264328;61;1183;-88
2022/07/23 06:11:53;627101.00;2.09;1081.04;12607.00;0.04;22.47;;;;;34.10;1.00;;;;;;2271340;56;3765;-88
2022/07/23 06:14:27;515955.00;1.72;889.30;52043.00;0.17;90.72;;;;;34.70;1.00;;;;;;2264175;61;1465;-90
2022/07/23 06:16:59;487308.00;1.62;839.98;113060.00;0.38;196.11;;;;;35.50;1.00;;;;;;2264121;61;1919;-89
2022/07/23 06:19:29;359644.00;1.20;620.44;57826.00;0.19;100.72;;;;;36.30;1.00;;;;;;2264166;61;1523;-88
2022/07/23 06:22:04;336260.00;1.12;580.25;53215.00;0.18;92.75;;;;;36.90;1.00;;;;;;2264104;61;1417;-90
2022/07/23 06:24:35;519823.00;1.73;895.96;55747.00;0.19;97.12;;;;;37.30;1.00;;;;;;2264650;61;1256;-89
2022/07/23 06:27:09;577082.00;1.92;994.66;123693.00;0.41;214.45;;;;;37.40;1.00;;;;;;2264984;61;1560;-89
2022/07/23 06:29:42;124044520.00;413.48;77326296.00;55426.00;0.18;96.57;;;;;37.50;1.00;;;;;;2267898;40;3587;-88
2022/07/23 06:32:15;1185952.00;3.95;2064.84;49491.00;0.16;86.31;;;;;37.70;1.00;;;;;;2265157;61;1731;-89
2022/07/23 06:34:45;839709.00;2.80;1450.47;67867.00;0.23;118.07;;;;;38.00;1.00;;;;;;2265033;61;1437;-89
2022/07/23 06:37:12;829102.00;2.76;1431.93;138133.00;0.46;239.35;;;;;38.50;1.00;;;;;;2264910;61;1999;-88
2022/07/23 06:39:42;539747.00;1.80;930.29;57207.00;0.19;99.65;;;;;38.90;1.00;;;;;;2264876;61;1564;-89
2022/07/23 06:42:14;332957.00;1.11;574.57;55005.00;0.18;95.84;;;;;39.20;1.00;;;;;;2264986;61;1367;-90
2022/07/23 06:44:42;428181.00;1.43;738.26;51884.00;0.17;90.44;;;;;39.20;1.00;;;;;;2264868;61;1549;-89
2022/07/23 06:47:09;642332.00;2.14;1107.37;147999.00;0.49;256.36;;;;;38.00;1.00;;;;;;2264943;61;1606;-88
2022/07/23 06:49:41;468217.00;1.56;807.12;54042.00;0.18;94.18;;;;;38.70;1.00;;;;;;2265130;61;1626;-89
2022/07/23 06:52:12;390819.00;1.30;674.02;63903.00;0.21;111.22;;;;;37.40;1.00;;;;;;2264939;61;1575;-89
2022/07/23 06:54:40;482042.00;1.61;830.91;55948.00;0.19;97.47;;;;;38.10;1.00;;;;;;2265173;61;923;-89
2022/07/23 06:57:14;723006.00;2.41;1247.16;59074.00;0.20;102.88;;;;;38.30;1.00;;;;;;2264871;61;1912;-89
2022/07/23 06:59:47;339025.00;1.13;585.00;46475.00;0.15;81.09;;;;;39.10;1.00;;;;;;2265060;61;1048;-89
2022/07/23 07:02:15;665060.00;2.22;1146.70;57247.00;0.19;99.72;;;;;39.30;1.00;;;;;;2264995;61;1432;-87
2022/07/23 07:04:42;569327.00;1.90;981.29;44064.00;0.15;76.92;;;;;39.40;1.00;;;;;;2264983;61;1649;-88
2022/07/23 07:07:09;397960.00;1.33;686.30;52236.00;0.17;91.05;;;;;38.60;1.00;;;;;;2264939;61;1075;-88
2022/07/23 07:09:42;409299.00;1.36;705.79;47702.00;0.16;83.21;;;;;38.80;1.00;;;;;;2264884;61;1614;-88
2022/07/23 07:12:16;806401.00;2.69;1392.29;76873.00;0.26;133.64;;;;;38.00;1.00;;;;;;2265051;61;1503;-88
2022/07/23 07:14:47;1138182.00;3.79;1978.84;66335.00;0.22;115.43;;;;;37.80;1.00;;;;;;2264926;61;1035;-88
2022/07/23 07:17:16;941142.00;3.14;1628.50;92390.00;0.31;160.43;;;;;38.20;1.00;;;;;;2264990;61;1920;-88
2022/07/23 07:19:46;1489663.00;4.97;2623.68;62537.00;0.21;108.86;;;;;39.10;1.00;;;;;;2264999;61;1676;-88
2022/07/23 07:22:13;1548758.00;5.16;2735.21;121819.00;0.41;211.22;;;;;38.70;1.00;;;;;;2264947;61;1487;-89
2022/07/23 07:24:45;968955.00;3.23;1677.56;92703.00;0.31;160.97;;;;;37.10;1.00;;;;;;2264539;61;2123;-88
2022/07/23 07:27:12;725255.00;2.42;1251.06;41653.00;0.14;72.75;;;;;36.40;1.00;;;;;;2264920;61;1470;-87
2022/07/23 07:29:42;784981.00;2.62;1354.94;15474.00;0.05;27.43;;;;;35.30;1.00;;;;;;2264836;61;1635;-88
2022/07/23 07:32:16;691817.00;2.31;1193.05;57113.00;0.19;99.49;;;;;34.40;1.00;;;;;;2264786;61;1439;-88
2022/07/23 07:34:43;953432.00;3.18;1650.16;87168.00;0.29;151.42;;;;;33.90;1.00;;;;;;2264266;61;893;-87
2022/07/23 07:37:13;923601.00;3.08;1597.61;18608.00;0.06;32.86;;;;;33.30;1.00;;;;;;2264859;61;1907;-87
2022/07/23 07:39:44;532975.00;1.78;918.62;25203.00;0.08;44.28;;;;;33.10;1.00;;;;;;2264771;61;1036;-88
2022/07/23 07:42:11;499376.00;1.66;860.75;23870.00;0.08;41.97;;;;;33.20;1.00;;;;;;2264891;61;1324;-88
2022/07/23 07:44:38;674164.00;2.25;1162.46;23663.00;0.08;41.61;;;;;33.20;1.00;;;;;;2264925;61;1507;-87
2022/07/23 07:47:05;772042.00;2.57;1332.41;13190.00;0.04;23.48;;;;;33.00;1.00;;;;;;2264780;61;1633;-86
2022/07/23 07:49:34;983875.00;3.28;1703.93;253162.00;0.84;437.39;;;;;32.30;1.00;;;;;;2264953;61;1468;-89
2022/07/23 07:52:07;678191.00;2.26;1169.44;5928.00;0.02;10.89;;;;;32.50;1.00;;;;;;2265041;61;1422;-88
2022/07/23 07:54:34;123585064.00;411.95;76469448.00;122461.00;0.41;212.33;;;;;31.80;1.00;;;;;;2264808;61;1023;-89
2022/07/23 07:57:01;603202.00;2.01;1039.75;41789.00;0.14;72.98;;;;;32.30;1.00;;;;;;2264603;61;1990;-89
2022/07/23 07:59:28;118140440.00;393.80;66793096.00;45486.00;0.15;79.38;;;;;32.30;1.00;;;;;;2268184;56;3744;-89
2022/07/23 08:01:55;864130.00;2.88;1493.21;102290.00;0.34;177.52;;;;;31.90;1.00;;;;;;2264503;61;1721;-88
2022/07/23 08:04:23;1429549.00;4.77;2511.24;150000.00;0.50;259.81;;;;;31.80;1.00;;;;;;2270982;56;3745;-88
2022/07/23 08:06:54;1116668.00;3.72;1940.26;147927.00;0.49;256.23;;;;;31.90;1.00;;;;;;2264500;61;1357;-88
2022/07/23 08:09:21;1096314.00;3.65;1903.83;11198.00;0.04;20.02;;;;;32.20;1.00;;;;;;2271802;56;3745;-88
2022/07/23 08:11:50;976766.00;3.26;1691.36;75639.00;0.25;131.50;;;;;32.50;1.00;;;;;;2264481;61;1660;-88
2022/07/23 08:14:17;778365.00;2.59;1343.42;57943.00;0.19;100.92;;;;;33.40;1.00;;;;;;2264482;61;1826;-87
2022/07/23 08:16:44;997540.00;3.33;1728.12;122180.00;0.41;211.84;;;;;34.30;1.00;;;;;;2264522;61;2001;-87
2022/07/23 08:19:11;977262.00;3.26;1692.24;90099.00;0.30;156.48;;;;;34.70;1.00;;;;;;2264575;61;1534;-87
2022/07/23 08:21:38;1174571.00;3.92;2044.31;40227.00;0.13;70.28;;;;;34.50;1.00;;;;;;2264361;61;1478;-87
2022/07/23 08:24:07;971943.00;3.24;1682.84;81120.00;0.27;140.97;;;;;34.00;1.00;;;;;;2264467;61;1735;-87
2022/07/23 08:26:34;933008.00;3.11;1614.17;157201.00;0.52;272.22;;;;;33.60;1.00;;;;;;2264569;61;995;-89
2022/07/23 08:29:01;895651.00;2.99;1548.48;52855.00;0.18;92.12;;;;;33.40;1.00;;;;;;2264487;61;1532;-88
2022/07/23 08:31:32;971632.00;3.24;1682.29;119832.00;0.40;207.79;;;;;33.00;1.00;;;;;;2276623;40;3768;-88
2022/07/23 08:33:59;647061.00;2.16;1115.55;1631.00;0.01;3.45;;;;;33.20;1.00;;;;;;2264416;61;1769;-86
2022/07/23 08:36:28;1230291.00;4.10;2145.08;80336.00;0.27;139.62;;;;;33.80;1.00;;;;;;2264394;61;1071;-86
2022/07/23 08:38:55;1326045.00;4.42;2319.85;81837.00;0.27;142.21;;;;;34.10;1.00;;;;;;2264411;61;1936;-88
2022/07/23 08:41:34;1444431.00;4.81;2538.99;100963.00;0.34;175.23;;;;;34.40;1.00;;;;;;2264449;61;1027;-88
2022/07/23 08:46:37;1462532.00;4.88;2572.81;58357.00;0.19;101.64;;;;;34.60;1.00;;;;;;1562853;56;3596;-88
2022/07/23 08:49:05;928497.00;3.09;1606.23;45850.00;0.15;80.01;;;;;35.50;1.00;;;;;;2264512;61;1127;-86
2022/07/23 08:51:34;1184055.00;3.95;2061.42;123972.00;0.41;214.93;;;;;34.80;1.00;;;;;;2264327;61;1632;-88
2022/07/23 08:54:04;1181867.00;3.94;2057.47;118802.00;0.40;206.02;;;;;34.30;1.00;;;;;;2264384;61;987;-88
2022/07/23 08:56:33;984612.00;3.28;1705.24;45991.00;0.15;80.25;;;;;33.70;1.00;;;;;;2264446;61;1662;-90
2022/07/23 09:01:37;1118741.00;3.73;1943.97;19413.00;0.06;34.25;;;;;34.10;1.00;;;;;;2254062;61;1320;-87
2022/07/23 09:04:04;94627.00;0.32;164.30;0.00;0.00;0.62;;;;;34.10;1.00;;;;;;2252616;61;1195;-86
2022/07/23 09:06:31;319824.00;1.07;552.00;0.00;0.00;0.62;;;;;34.20;1.00;;;;;;2266157;56;3756;-88
2022/07/23 09:08:58;506435.00;1.69;872.90;5363.00;0.02;9.91;;;;;34.00;1.00;;;;;;2264237;61;1421;-88
2022/07/23 09:11:25;242831.00;0.81;419.62;0.00;0.00;0.62;;;;;33.90;1.00;;;;;;2273129;56;3749;-88
2022/07/23 09:16:27;2035181.00;6.78;3696.81;41717.00;0.14;72.86;;;;;33.30;1.00;;;;;;2273062;56;3582;-88
2022/07/23 09:18:57;1476204.00;4.92;2598.42;33243.00;0.11;58.20;;;;;32.90;1.00;;;;;;2266388;56;3667;-89
2022/07/23 09:21:28;1076098.00;3.59;1867.73;66122.00;0.22;115.06;;;;;33.30;1.00;;;;;;2264623;61;924;-86
2022/07/23 09:23:58;817367.00;2.72;1411.43;48583.00;0.16;84.74;;;;;33.60;1.00;;;;;;2260494;61;997;-88
2022/07/23 09:26:31;1699592.00;5.67;3024.63;194907.00;0.65;337.16;;;;;34.00;1.00;;;;;;2260323;61;1419;-87
2022/07/23 09:29:06;775575.00;2.59;1338.56;60439.00;0.20;105.24;;;;;33.90;1.00;;;;;;2260615;61;1099;-89
2022/07/23 09:31:44;1047852.00;3.49;1817.41;100496.00;0.33;174.43;;;;;33.30;1.00;;;;;;2260579;61;1409;-87
2022/07/23 09:34:15;1103922.00;3.68;1917.44;63558.00;0.21;110.63;;;;;33.60;1.00;;;;;;2260607;61;1060;-87
2022/07/23 09:36:43;921175.00;3.07;1593.34;149275.00;0.50;258.56;;;;;34.20;1.00;;;;;;2260348;61;933;-87
2022/07/23 09:39:11;1045775.00;3.49;1813.72;37691.00;0.13;65.89;;;;;34.10;1.00;;;;;;2260361;61;1942;-88
2022/07/23 09:41:41;1161521.00;3.87;2020.80;152768.00;0.51;264.58;;;;;33.70;1.00;;;;;;2260493;61;1451;-87
2022/07/23 09:44:13;970812.00;3.24;1680.84;62234.00;0.21;108.34;;;;;33.50;1.00;;;;;;2260391;61;1590;-89
2022/07/23 09:46:42;1156586.00;3.86;2011.92;64529.00;0.22;112.31;;;;;33.70;1.00;;;;;;2260405;61;1084;-88
2022/07/23 09:49:18;872445.00;2.91;1507.77;59504.00;0.20;103.62;;;;;34.20;1.00;;;;;;2260285;61;2224;-87
2022/07/23 09:51:56;783521.00;2.61;1352.40;58707.00;0.20;102.24;;;;;34.90;1.00;;;;;;2260266;61;1277;-87
2022/07/23 09:54:28;268959.00;0.90;464.55;0.00;0.00;0.62;;;;;34.90;1.00;;;;;;2260494;61;1163;-88
2022/07/23 09:56:58;822412.00;2.74;1420.24;110334.00;0.37;191.41;;;;;35.10;1.00;;;;;;2260373;61;1098;-88
2022/07/23 09:59:27;1766916.00;5.89;3156.20;74538.00;0.25;129.60;;;;;35.40;1.00;;;;;;2287208;56;3636;-86
2022/07/23 10:01:59;1182850.00;3.94;2059.24;71813.00;0.24;124.89;;;;;35.00;1.00;;;;;;2265405;61;1412;-90
2022/07/23 10:04:27;1102908.00;3.68;1915.62;150569.00;0.50;260.79;;;;;34.30;1.00;;;;;;2265366;61;1662;-90
2022/07/23 10:06:56;1052313.00;3.51;1825.35;122421.00;0.41;212.26;;;;;33.20;1.00;;;;;;2272479;40;3657;-88
2022/07/23 10:09:27;817753.00;2.73;1412.10;46064.00;0.15;80.38;;;;;32.80;1.00;;;;;;2265486;61;1068;-88
2022/07/23 10:12:00;850790.00;2.84;1469.85;67977.00;0.23;118.26;;;;;32.00;1.00;;;;;;2265257;61;1708;-87
2022/07/23 10:14:31;982136.00;3.27;1700.86;199588.00;0.67;345.21;;;;;31.70;1.00;;;;;;2264879;61;1436;-89
2022/07/23 10:17:00;1055456.00;3.52;1830.94;117552.00;0.39;203.86;;;;;31.70;1.00;;;;;;2266652;56;3740;-87
2022/07/23 10:19:27;1376259.00;4.59;2412.36;163456.00;0.54;282.99;;;;;32.50;1.00;;;;;;2264746;61;1940;-88
2022/07/23 10:21:58;875004.00;2.92;1512.26;13272.00;0.04;23.62;;;;;32.90;1.00;;;;;;2264753;61;1292;-88
2022/07/23 10:24:37;1342677.00;4.48;2350.42;60319.00;0.20;105.03;;;;;32.20;1.00;;;;;;2272871;41;3597;-88
2022/07/23 10:27:26;796392.00;2.65;1374.83;13154.00;0.04;23.41;;;;;31.80;1.00;;;;;;2264665;61;1526;-88
2022/07/23 10:30:04;699341.00;2.33;1206.10;19272.00;0.06;34.01;;;;;31.80;1.00;;;;;;2264578;61;1453;-89
2022/07/23 10:35:20;732856.00;2.44;1264.26;34302.00;0.11;60.03;;;;;32.80;1.00;;;;;;1627947;60;1807;-88
2022/07/23 10:37:51;598779.00;2.00;1032.11;24047.00;0.08;42.28;;;;;33.10;1.00;;;;;;2257286;61;1935;-87
2022/07/23 10:40:22;470059.00;1.57;810.29;0.00;0.00;0.62;;;;;33.10;1.00;;;;;;2257305;61;972;-88
2022/07/23 10:45:29;1085042.00;3.62;1883.69;7555.00;0.03;13.71;;;;;33.20;1.00;;;;;;2263606;61;1333;-89
2022/07/23 10:47:57;1053435.00;3.51;1827.35;68445.00;0.23;119.07;;;;;33.00;1.00;;;;;;2261262;61;941;-87
2022/07/23 10:53:17;1468312.00;4.89;2583.63;23252.00;0.08;40.90;;;;;33.40;1.00;;;;;;2274873;40;3514;-85
2022/07/23 10:55:59;259790.00;0.87;448.79;0.00;0.00;0.62;;;;;33.20;1.00;;;;;;2265156;61;1189;-90
2022/07/23 10:58:48;327667.00;1.09;565.48;25382.00;0.08;44.59;;;;;33.30;1.00;;;;;;2264995;61;1906;-88
2022/07/23 11:01:36;228110.00;0.76;394.30;0.00;0.00;0.62;;;;;33.00;1.00;;;;;;2272514;56;3700;-86
2022/07/23 11:04:04;279955.00;0.93;483.46;0.00;0.00;0.62;;;;;32.50;1.00;;;;;;2257011;61;1698;-87
2022/07/23 11:07:11;367450.00;1.22;633.85;0.00;0.00;0.62;;;;;32.30;1.00;;;;;;2257017;61;1629;-90
2022/07/23 11:09:45;178562.00;0.60;309.01;0.00;0.00;0.62;;;;;32.60;1.00;;;;;;2257089;61;1048;-88
2022/07/23 11:12:36;332517.00;1.11;573.81;5946.00;0.02;10.92;;;;;33.00;1.00;;;;;;2257166;61;1613;-88
2022/07/23 11:15:06;64589.00;0.22;112.41;0.00;0.00;0.62;;;;;33.70;1.00;;;;;;2257193;61;1039;-88
2022/07/23 11:17:35;39291.00;0.13;68.66;0.00;0.00;0.62;;;;;33.50;1.00;;;;;;2257071;61;1910;-87
2022/07/23 11:20:18;160963.00;0.54;278.70;0.00;0.00;0.62;;;;;33.70;1.00;;;;;;2260856;56;3768;-87